Time;durP1;ratioP1;P1;durP2;ratioP2;P2;SDS_P1;SDS_P2;PMS_P1;PMS_P2;Temp;Humidity;BMP_temperature;BMP_pressure;BME280_temperature;BME280_humidity;BME280_pressure;Samples;Min_cycle;Max_cycle;Signal;HPM_P1;HPM_P2
2021/10/11 00:00:36;;;;;;;18.13;12.68;;;7.50;65.70;;;;;;4997123;28;20490;-81
2021/10/11 00:03:01;;;;;;;21.20;13.45;;;7.50;65.70;;;;;;4997979;28;20072;-81
2021/10/11 00:05:27;;;;;;;21.63;12.48;;;7.50;66.00;;;;;;5013435;28;20117;-80
2021/10/11 00:07:53;;;;;;;17.92;13.35;;;7.50;66.30;;;;;;5015250;28;20361;-81
2021/10/11 00:10:19;;;;;;;20.23;14.15;;;7.40;66.10;;;;;;5015581;28;20414;-81
2021/10/11 00:12:48;;;;;;;18.65;12.90;;;7.40;66.10;;;;;;5015576;28;20045;-81
2021/10/11 00:15:15;;;;;;;23.63;12.68;;;7.40;66.80;;;;;;5015198;28;20439;-80
2021/10/11 00:17:42;;;;;;;22.38;12.77;;;7.40;66.50;;;;;;5015342;28;20097;-81
2021/10/11 00:20:09;;;;;;;20.98;12.57;;;7.40;66.10;;;;;;5016602;28;20026;-81
2021/10/11 00:22:35;;;;;;;19.15;12.52;;;7.40;66.20;;;;;;5016031;28;20072;-80
2021/10/11 00:25:00;;;;;;;22.58;12.82;;;7.40;66.20;;;;;;5004566;28;20030;-80
2021/10/11 00:27:26;;;;;;;20.15;13.05;;;7.30;66.00;;;;;;5015455;28;20026;-81
2021/10/11 00:29:52;;;;;;;16.23;12.07;;;7.30;66.30;;;;;;5014806;28;20033;-81
2021/10/11 00:32:18;;;;;;;20.65;12.45;;;7.30;66.50;;;;;;5014772;28;20113;-81
2021/10/11 00:34:43;;;;;;;22.20;13.40;;;7.30;66.30;;;;;;5014536;28;20491;-82
2021/10/11 00:37:09;;;;;;;16.75;11.73;;;7.20;66.50;;;;;;5014982;28;20058;-81
2021/10/11 00:39:35;;;;;;;24.08;13.32;;;7.20;66.50;;;;;;5014859;28;20025;-83
2021/10/11 00:42:01;;;;;;;16.42;12.40;;;7.10;66.70;;;;;;5013238;28;20022;-80
2021/10/11 00:44:27;;;;;;;23.55;13.38;;;7.00;67.00;;;;;;5014967;28;20026;-80
2021/10/11 00:46:53;;;;;;;22.75;12.70;;;7.00;67.40;;;;;;5013462;28;20037;-80
2021/10/11 00:49:19;;;;;;;22.70;13.93;;;7.00;67.90;;;;;;5015566;28;20026;-81
2021/10/11 00:51:45;;;;;;;20.50;13.68;;;7.00;67.90;;;;;;5014643;28;20088;-80
2021/10/11 00:54:12;;;;;;;19.92;12.90;;;6.90;67.90;;;;;;5014517;28;20026;-80
2021/10/11 00:56:38;;;;;;;20.60;12.55;;;6.90;67.90;;;;;;5014342;28;20065;-81
2021/10/11 00:59:03;;;;;;;19.30;12.35;;;6.80;68.10;;;;;;5014160;28;20026;-81
2021/10/11 01:01:29;;;;;;;21.95;14.45;;;6.80;68.40;;;;;;5014060;28;20032;-80
2021/10/11 01:03:55;;;;;;;24.27;13.82;;;6.70;68.60;;;;;;5013911;28;20080;-81
2021/10/11 01:06:21;;;;;;;17.60;11.45;;;6.70;69.10;;;;;;5014477;28;20026;-81
2021/10/11 01:08:48;;;;;;;23.02;12.63;;;6.60;68.90;;;;;;5014243;28;20029;-80
2021/10/11 01:11:14;;;;;;;20.33;13.10;;;6.60;68.80;;;;;;4997504;28;20038;-81
2021/10/11 01:13:39;;;;;;;19.48;12.75;;;6.50;69.30;;;;;;4994958;28;20252;-79
2021/10/11 01:16:05;;;;;;;22.83;12.93;;;6.50;69.80;;;;;;4994378;28;20038;-80
2021/10/11 01:18:31;;;;;;;20.17;12.43;;;6.50;69.40;;;;;;4994871;28;20030;-81
2021/10/11 01:20:57;;;;;;;18.70;11.70;;;6.50;69.90;;;;;;4994332;28;20128;-80
2021/10/11 01:23:25;;;;;;;18.58;12.98;;;6.50;70.00;;;;;;4994167;28;20424;-80
2021/10/11 01:25:53;;;;;;;19.48;12.35;;;6.40;69.70;;;;;;4995874;28;20472;-81
2021/10/11 01:28:19;;;;;;;;;;;6.40;70.30;;;;;;5014332;28;20440;-81
2021/10/11 01:30:45;;;;;;;20.23;13.18;;;6.40;70.00;;;;;;5012839;28;19916;-80
2021/10/11 01:33:10;;;;;;;19.02;12.00;;;6.30;70.40;;;;;;5013425;28;20395;-81
2021/10/11 01:35:36;;;;;;;24.95;14.32;;;6.30;70.50;;;;;;5014956;28;20072;-81
2021/10/11 01:38:03;;;;;;;21.10;13.73;;;6.40;70.70;;;;;;5014304;28;20018;-80
2021/10/11 01:40:28;;;;;;;18.23;12.32;;;6.40;70.50;;;;;;4996419;28;20545;-81
2021/10/11 01:42:54;;;;;;;20.88;12.90;;;6.40;70.80;;;;;;5015111;28;20030;-80
2021/10/11 01:45:20;;;;;;;17.42;13.30;;;6.50;70.40;;;;;;5014458;28;20049;-81
2021/10/11 01:47:46;;;;;;;22.02;12.50;;;6.50;70.40;;;;;;5014231;28;20058;-81
2021/10/11 01:50:12;;;;;;;17.10;11.82;;;6.50;70.50;;;;;;5013988;28;20037;-80
2021/10/11 01:52:40;;;;;;;21.38;13.10;;;6.50;70.70;;;;;;5014898;28;20502;-81
2021/10/11 01:55:07;;;;;;;20.60;13.35;;;6.50;70.80;;;;;;5013118;28;20030;-80
2021/10/11 01:57:33;;;;;;;21.20;12.45;;;6.40;71.00;;;;;;5014392;28;20018;-82
2021/10/11 01:59:59;;;;;;;21.30;12.30;;;6.40;70.80;;;;;;5014936;28;20037;-80
2021/10/11 02:02:27;;;;;;;18.17;13.10;;;6.40;71.00;;;;;;5013848;28;20380;-83
2021/10/11 02:04:53;;;;;;;19.58;12.70;;;6.30;71.10;;;;;;5013712;28;20462;-82
2021/10/11 02:07:19;;;;;;;19.98;12.70;;;6.30;71.20;;;;;;5012578;28;20037;-80
2021/10/11 02:09:44;;;;;;;21.92;13.30;;;6.30;71.20;;;;;;5013769;28;20117;-80
2021/10/11 02:12:10;;;;;;;17.88;12.48;;;6.30;71.20;;;;;;5013049;28;20447;-80
2021/10/11 02:14:36;;;;;;;20.63;13.55;;;6.30;71.80;;;;;;5013188;28;20140;-81
2021/10/11 02:17:03;;;;;;;18.38;11.75;;;6.30;71.00;;;;;;5013014;28;20061;-81
2021/10/11 02:19:29;;;;;;;25.63;12.95;;;6.40;70.80;;;;;;5012859;28;20065;-81
2021/10/11 02:21:55;;;;;;;20.77;13.13;;;6.50;70.80;;;;;;5014636;28;20487;-81
2021/10/11 02:24:21;;;;;;;21.35;13.00;;;6.50;70.80;;;;;;5013219;28;20068;-81
2021/10/11 02:26:47;;;;;;;16.48;12.18;;;6.60;70.30;;;;;;5012994;28;20022;-82
2021/10/11 02:29:12;;;;;;;33.53;12.13;;;6.60;69.60;;;;;;5013117;28;20106;-80
2021/10/11 02:31:38;;;;;;;17.80;11.90;;;6.50;69.70;;;;;;5013237;28;20033;-81
2021/10/11 02:34:04;;;;;;;20.90;12.88;;;6.50;69.90;;;;;;5013364;28;20026;-80
2021/10/11 02:36:30;;;;;;;19.42;11.52;;;6.40;70.10;;;;;;5013723;28;20034;-82
2021/10/11 02:38:55;;;;;;;20.40;12.27;;;6.30;70.10;;;;;;5013502;28;20057;-81
2021/10/11 02:41:21;;;;;;;18.70;12.23;;;6.30;70.40;;;;;;5014236;28;20026;-81
2021/10/11 02:43:48;;;;;;;19.33;12.20;;;6.30;70.30;;;;;;5017447;28;20097;-82
2021/10/11 02:46:14;;;;;;;22.98;13.20;;;6.20;70.50;;;;;;5016853;28;20155;-80
2021/10/11 02:48:39;;;;;;;23.92;13.05;;;6.20;70.60;;;;;;5016281;28;20481;-81
2021/10/11 02:51:05;;;;;;;20.77;12.60;;;6.20;70.80;;;;;;5016295;28;20399;-82
2021/10/11 02:53:31;;;;;;;21.77;13.77;;;6.10;70.90;;;;;;5016381;28;20404;-81
2021/10/11 02:55:57;;;;;;;18.58;12.35;;;;;;;;;;4998241;28;20041;-81
2021/10/11 02:58:23;;;;;;;22.75;13.63;;;6.10;70.70;;;;;;5016236;28;20549;-81
2021/10/11 03:00:49;;;;;;;21.20;13.52;;;6.10;71.00;;;;;;5015895;28;20026;-81
2021/10/11 03:03:14;;;;;;;23.88;14.18;;;6.00;71.60;;;;;;5016332;28;20046;-81
2021/10/11 03:05:40;;;;;;;23.33;14.73;;;6.00;71.50;;;;;;5016029;28;20096;-82
2021/10/11 03:08:06;;;;;;;28.10;14.55;;;5.90;71.50;;;;;;4998207;28;20033;-81
2021/10/11 03:10:32;;;;;;;22.10;12.65;;;5.90;71.50;;;;;;5016047;28;20037;-82
2021/10/11 03:12:58;;;;;;;25.60;13.77;;;5.90;71.70;;;;;;5015789;28;20049;-81
2021/10/11 03:15:24;;;;;;;22.65;14.90;;;5.80;71.90;;;;;;4998482;28;20034;-80
2021/10/11 03:17:49;;;;;;;36.35;13.77;;;5.80;72.10;;;;;;5016004;28;20022;-82
2021/10/11 03:20:15;;;;;;;19.33;13.13;;;5.70;72.10;;;;;;5015830;28;20037;-83
2021/10/11 03:22:42;;;;;;;22.35;13.88;;;5.70;72.80;;;;;;5015392;28;20048;-82
2021/10/11 03:25:08;;;;;;;31.30;14.88;;;5.70;73.00;;;;;;5015449;28;20060;-81
2021/10/11 03:27:34;;;;;;;20.27;12.77;;;5.70;73.40;;;;;;4998818;28;20133;-83
2021/10/11 03:30:00;;;;;;;22.77;13.02;;;5.70;73.40;;;;;;5016510;28;20120;-83
2021/10/11 03:32:26;;;;;;;26.58;13.70;;;5.70;73.70;;;;;;5015997;28;20467;-83
2021/10/11 03:34:51;;;;;;;21.02;13.05;;;5.70;74.00;;;;;;5015865;28;20117;-83
2021/10/11 03:37:17;;;;;;;20.13;12.20;;;5.60;74.00;;;;;;5016361;28;20080;-83
2021/10/11 03:39:43;;;;;;;24.48;15.07;;;5.60;74.10;;;;;;5017950;28;20030;-83
2021/10/11 03:42:09;;;;;;;26.10;14.43;;;5.60;74.10;;;;;;5018115;28;20022;-83
2021/10/11 03:44:35;;;;;;;30.88;15.48;;;5.60;74.20;;;;;;5016053;28;20061;-82
2021/10/11 03:47:01;;;;;;;23.10;13.18;;;5.50;74.20;;;;;;5015514;28;20033;-84
2021/10/11 03:49:26;;;;;;;29.42;14.60;;;5.50;74.40;;;;;;5015183;28;20030;-81
2021/10/11 03:51:52;;;;;;;28.88;15.15;;;5.50;74.70;;;;;;5015434;28;20471;-81
2021/10/11 03:54:18;;;;;;;27.20;13.82;;;5.50;74.90;;;;;;5015039;28;20025;-80
2021/10/11 03:56:44;;;;;;;20.88;13.88;;;5.40;75.10;;;;;;5016990;28;20116;-80
2021/10/11 03:59:11;;;;;;;27.70;14.27;;;5.50;75.00;;;;;;5016158;28;20021;-82
2021/10/11 04:01:37;;;;;;;23.25;14.57;;;5.50;75.40;;;;;;5015113;28;20033;-80
2021/10/11 04:04:03;;;;;;;26.30;14.38;;;5.40;75.30;;;;;;5014613;28;20037;-81
2021/10/11 04:06:29;;;;;;;33.00;15.68;;;5.40;75.60;;;;;;5005186;28;20038;-81
2021/10/11 04:08:55;;;;;;;23.92;15.45;;;5.50;75.70;;;;;;4995432;28;20030;-80
2021/10/11 04:11:23;;;;;;;20.15;13.82;;;5.50;75.30;;;;;;4997199;28;20030;-81
2021/10/11 04:13:49;;;;;;;23.23;15.77;;;5.50;75.50;;;;;;4995138;28;20416;-80
2021/10/11 04:16:15;;;;;;;30.05;16.75;;;5.60;75.50;;;;;;4994198;28;20101;-80
2021/10/11 04:18:41;;;;;;;35.63;17.63;;;5.60;75.50;;;;;;4994402;28;20042;-79
2021/10/11 04:21:07;;;;;;;24.80;15.77;;;5.60;76.40;;;;;;4994403;28;20029;-78
2021/10/11 04:23:34;;;;;;;24.92;15.23;;;5.60;75.80;;;;;;4995763;28;20026;-80
2021/10/11 04:26:00;;;;;;;24.48;14.05;;;5.60;75.50;;;;;;5014269;28;20080;-81
2021/10/11 04:28:25;;;;;;;26.63;13.63;;;5.70;75.30;;;;;;5014021;28;20030;-80
2021/10/11 04:30:51;;;;;;;26.42;15.52;;;5.70;75.40;;;;;;5014158;28;20101;-81
2021/10/11 04:33:18;;;;;;;23.67;14.48;;;5.70;75.30;;;;;;5014038;28;20041;-80
2021/10/11 04:35:45;;;;;;;24.50;14.20;;;5.70;75.10;;;;;;5014158;28;20062;-81
2021/10/11 04:38:11;;;;;;;;;;;5.80;75.20;;;;;;5014696;28;20033;-80
2021/10/11 04:40:37;;;;;;;29.27;15.90;;;5.80;74.80;;;;;;5014028;28;19905;-82
2021/10/11 04:43:04;;;;;;;26.05;14.73;;;5.80;75.00;;;;;;5014007;28;20033;-81
2021/10/11 04:45:30;;;;;;;24.75;14.43;;;5.80;75.70;;;;;;5014263;28;20022;-80
2021/10/11 04:47:58;;;;;;;26.17;14.77;;;5.90;75.10;;;;;;5014114;28;20022;-82
2021/10/11 04:50:24;;;;;;;;;;;5.90;74.80;;;;;;5014798;28;20084;-82
2021/10/11 04:52:50;;;;;;;21.50;13.80;;;6.00;74.30;;;;;;5014386;28;19906;-81
2021/10/11 04:55:16;;;;;;;31.85;14.38;;;6.10;73.90;;;;;;5016140;28;20060;-80
2021/10/11 04:57:42;;;;;;;27.08;13.95;;;6.10;73.60;;;;;;5014499;28;20097;-80
2021/10/11 05:00:08;;;;;;;30.40;14.88;;;6.20;73.40;;;;;;5013717;28;20037;-81
2021/10/11 05:02:34;;;;;;;35.03;16.27;;;6.20;73.30;;;;;;4995835;28;20407;-81
2021/10/11 05:04:59;;;;;;;36.90;14.75;;;6.20;73.10;;;;;;4995937;28;20030;-80
2021/10/11 05:07:25;;;;;;;29.23;15.40;;;6.20;72.80;;;;;;5013420;28;20399;-81
2021/10/11 05:09:51;;;;;;;30.13;16.00;;;6.20;72.80;;;;;;5013595;28;20439;-81
2021/10/11 05:12:17;;;;;;;28.05;15.15;;;6.20;72.80;;;;;;5013622;28;20029;-80
2021/10/11 05:14:43;;;;;;;24.33;14.55;;;6.30;73.10;;;;;;5013518;28;20053;-81
2021/10/11 05:17:08;;;;;;;27.05;14.82;;;6.30;73.00;;;;;;4995270;28;20038;-82
2021/10/11 05:19:34;;;;;;;23.23;13.73;;;6.30;72.80;;;;;;5013584;28;20068;-82
2021/10/11 05:22:00;;;;;;;21.55;15.00;;;6.30;72.50;;;;;;5013619;28;20030;-80
2021/10/11 05:24:26;;;;;;;25.67;13.88;;;6.40;72.30;;;;;;5012921;28;20029;-81
2021/10/11 05:26:53;;;;;;;26.65;14.63;;;6.40;72.30;;;;;;4995434;28;20033;-83
2021/10/11 05:29:19;;;;;;;22.80;14.38;;;6.40;72.30;;;;;;5013486;28;20033;-82
2021/10/11 05:31:46;;;;;;;21.23;13.52;;;6.50;72.40;;;;;;5013188;28;20030;-81
2021/10/11 05:34:13;;;;;;;28.75;14.25;;;6.60;72.40;;;;;;5013276;28;20029;-82
2021/10/11 05:36:39;;;;;;;25.10;13.93;;;6.70;72.00;;;;;;5013574;28;20029;-83
2021/10/11 05:39:05;;;;;;;22.15;14.07;;;6.80;71.60;;;;;;4995952;28;20022;-82
2021/10/11 05:41:31;;;;;;;26.05;14.82;;;6.80;71.20;;;;;;5004579;28;20037;-82
2021/10/11 05:43:56;;;;;;;26.80;14.13;;;6.90;71.10;;;;;;5013613;28;20025;-83
2021/10/11 05:46:22;;;;;;;21.25;14.07;;;6.90;70.80;;;;;;5012835;28;20030;-83
2021/10/11 05:48:48;;;;;;;22.60;15.43;;;6.90;70.40;;;;;;5012886;28;20074;-82
2021/10/11 05:51:14;;;;;;;22.67;14.45;;;6.90;70.20;;;;;;5013148;28;20495;-83
2021/10/11 05:53:40;;;;;;;23.85;13.70;;;7.00;69.90;;;;;;5012723;28;20053;-83
2021/10/11 05:56:05;;;;;;;19.48;14.50;;;7.00;69.50;;;;;;5013038;28;20081;-85
2021/10/11 05:58:32;;;;;;;21.33;15.07;;;7.00;69.40;;;;;;5013391;28;20034;-82
2021/10/11 06:00:58;;;;;;;22.77;15.17;;;7.10;69.40;;;;;;5012674;28;20022;-82
2021/10/11 06:03:24;;;;;;;21.25;13.20;;;7.10;69.00;;;;;;5012440;28;20290;-81
2021/10/11 06:05:51;;;;;;;16.30;12.77;;;7.20;68.30;;;;;;5011643;28;20026;-81
2021/10/11 06:08:17;;;;;;;22.88;14.82;;;7.20;67.80;;;;;;5012965;28;20080;-81
2021/10/11 06:10:43;;;;;;;25.25;14.10;;;7.40;67.50;;;;;;5012679;28;20041;-81
2021/10/11 06:13:08;;;;;;;22.67;14.02;;;7.40;67.10;;;;;;5001540;28;20027;-81
2021/10/11 06:15:34;;;;;;;21.92;14.48;;;7.50;67.00;;;;;;4993082;28;20038;-81
2021/10/11 06:18:00;;;;;;;26.15;16.15;;;7.50;67.20;;;;;;4997025;28;20496;-81
2021/10/11 06:20:26;;;;;;;21.83;14.60;;;7.60;67.10;;;;;;4997341;28;20049;-83
2021/10/11 06:22:51;;;;;;;21.83;15.32;;;7.60;67.40;;;;;;4998287;28;20026;-81
2021/10/11 06:25:17;;;;;;;24.88;14.30;;;7.60;67.00;;;;;;5012240;28;20549;-81
2021/10/11 06:27:43;;;;;;;24.73;14.82;;;7.60;66.80;;;;;;5017283;28;20022;-82
2021/10/11 06:30:09;;;;;;;23.70;15.55;;;7.70;66.60;;;;;;5018171;28;20049;-85
2021/10/11 06:32:35;;;;;;;22.42;14.20;;;7.90;66.30;;;;;;5016738;28;20030;-83
2021/10/11 06:35:01;;;;;;;24.27;14.82;;;7.90;66.20;;;;;;5016434;28;20399;-84
2021/10/11 06:37:27;;;;;;;25.30;16.42;;;7.90;66.10;;;;;;5016880;28;20021;-83
2021/10/11 06:39:52;;;;;;;24.08;16.15;;;8.00;66.20;;;;;;5017146;28;20040;-82
2021/10/11 06:42:18;;;;;;;26.50;15.60;;;8.00;66.00;;;;;;5012541;28;20113;-83
2021/10/11 06:44:44;;;;;;;23.38;15.45;;;8.10;66.00;;;;;;4999475;28;20038;-81
2021/10/11 06:47:10;;;;;;;25.52;16.38;;;8.10;65.70;;;;;;5010381;28;20503;-85
2021/10/11 06:49:36;;;;;;;20.15;15.38;;;8.10;65.50;;;;;;5016736;28;20017;-87
2021/10/11 06:52:02;;;;;;;24.50;15.25;;;8.30;65.10;;;;;;4997426;28;20069;-83
2021/10/11 06:54:28;;;;;;;28.38;15.77;;;8.40;64.80;;;;;;5000005;28;20018;-84
2021/10/11 06:56:53;;;;;;;21.88;15.68;;;8.50;64.40;;;;;;4997165;28;20088;-84
2021/10/11 06:59:19;;;;;;;24.02;17.42;;;8.60;64.20;;;;;;4996719;28;20037;-84
2021/10/11 07:01:45;;;;;;;23.60;15.98;;;8.60;64.10;;;;;;4996298;28;20026;-84
2021/10/11 07:04:12;;;;;;;26.33;15.90;;;8.80;63.80;;;;;;5016005;28;20454;-83
2021/10/11 07:06:39;;;;;;;23.48;16.60;;;8.90;63.40;;;;;;5015577;28;20559;-83
2021/10/11 07:09:04;;;;;;;22.05;15.68;;;9.00;63.00;;;;;;5014505;28;20125;-83
2021/10/11 07:11:30;;;;;;;22.55;16.33;;;9.10;62.70;;;;;;5014783;28;20061;-82
2021/10/11 07:13:56;;;;;;;24.80;15.82;;;9.30;62.20;;;;;;5015938;28;20037;-84
2021/10/11 07:16:22;;;;;;;28.30;15.73;;;9.70;62.00;;;;;;5015851;28;20034;-84
2021/10/11 07:18:47;;;;;;;22.90;15.52;;;10.70;61.20;;;;;;5015888;28;20105;-83
2021/10/11 07:21:13;;;;;;;24.38;16.17;;;12.10;59.00;;;;;;5014566;28;20368;-84
2021/10/11 07:23:39;;;;;;;25.42;15.35;;;13.20;54.40;;;;;;5016116;28;20113;-84
2021/10/11 07:26:06;;;;;;;25.90;14.15;;;13.50;52.80;;;;;;5016600;28;20485;-82
2021/10/11 07:28:32;;;;;;;21.40;14.25;;;13.20;51.80;;;;;;4996877;28;20026;-83
2021/10/11 07:30:59;;;;;;;28.73;15.23;;;12.90;52.30;;;;;;5015402;28;20095;-84
2021/10/11 07:33:25;;;;;;;29.10;17.02;;;12.50;53.20;;;;;;4998146;28;20536;-82
2021/10/11 07:35:51;;;;;;;23.42;15.77;;;12.30;53.90;;;;;;5014994;28;20479;-84
2021/10/11 07:38:18;;;;;;;28.77;16.63;;;12.40;54.00;;;;;;5015384;28;20137;-84
2021/10/11 07:40:43;;;;;;;27.30;16.45;;;12.60;53.90;;;;;;5018332;28;20014;-84
2021/10/11 07:43:09;;;;;;;31.02;17.00;;;12.70;53.00;;;;;;5015642;28;20026;-84
2021/10/11 07:59:41;;;;;;;19.88;13.60;;;18.00;46.20;;;;;;5000753;28;20160;-84
2021/10/11 08:02:07;;;;;;;20.73;15.25;;;19.90;42.00;;;;;;5006409;28;20403;-84
2021/10/11 08:04:32;;;;;;;27.67;15.02;;;21.10;38.50;;;;;;4980251;28;20032;-84
2021/10/11 08:06:58;;;;;;;21.13;14.65;;;22.00;37.00;;;;;;5003982;28;20030;-83
2021/10/11 08:09:24;;;;;;;21.95;14.25;;;22.90;35.10;;;;;;5002454;28;20448;-83
2021/10/11 08:11:50;;;;;;;23.45;14.93;;;23.60;34.10;;;;;;4996565;28;20164;-83
2021/10/11 08:14:16;;;;;;;23.40;15.23;;;24.50;32.60;;;;;;5014728;28;20379;-84
2021/10/11 08:16:41;;;;;;;22.70;14.85;;;25.10;31.30;;;;;;4996745;28;20388;-84
2021/10/11 08:19:08;;;;;;;26.90;15.15;;;25.40;30.80;;;;;;4996407;28;20022;-84
2021/10/11 08:21:34;;;;;;;21.00;11.90;;;26.30;30.40;;;;;;4994790;28;20029;-84
2021/10/11 08:24:00;;;;;;;12.10;9.35;;;26.60;29.50;;;;;;4994707;28;20058;-85
2021/10/11 08:26:27;;;;;;;15.85;8.55;;;27.00;28.60;;;;;;4995197;28;20022;-83
2021/10/11 08:28:53;;;;;;;13.02;9.02;;;26.50;28.20;;;;;;4977721;28;20030;-84
2021/10/11 08:31:19;;;;;;;11.07;8.05;;;25.90;28.00;;;;;;4995522;28;20026;-84
2021/10/11 08:33:45;;;;;;;12.63;7.75;;;25.40;28.40;;;;;;4977209;28;20065;-84
2021/10/11 08:36:13;;;;;;;10.55;7.40;;;25.30;28.50;;;;;;5012323;28;20033;-83
2021/10/11 08:38:38;;;;;;;10.88;6.40;;;24.90;28.20;;;;;;5013784;28;20155;-84
2021/10/11 08:41:07;;;;;;;8.18;6.15;;;25.10;28.20;;;;;;5014210;28;20487;-84
2021/10/11 08:43:35;;;;;;;10.82;7.38;;;25.40;27.90;;;;;;5014483;28;20111;-85
2021/10/11 08:46:02;;;;;;;9.95;6.93;;;25.60;27.70;;;;;;5014532;28;20030;-84
2021/10/11 08:48:27;;;;;;;13.45;7.80;;;25.40;27.90;;;;;;5014409;28;20053;-84
2021/10/11 08:50:53;;;;;;;8.48;6.30;;;26.50;27.70;;;;;;5014345;28;20034;-84
2021/10/11 08:53:20;;;;;;;7.40;6.68;;;27.30;26.90;;;;;;5014749;28;20022;-84
2021/10/11 08:55:46;;;;;;;6.13;5.35;;;27.90;26.50;;;;;;4995945;28;20133;-84
2021/10/11 08:58:12;;;;;;;10.02;5.68;;;;;;;;;;5014962;28;20018;-86
2021/10/11 09:00:39;;;;;;;8.03;6.40;;;28.30;26.20;;;;;;4998393;28;20026;-83
2021/10/11 09:24:25;;;;;;;9.20;7.38;;;26.90;26.70;;;;;;6042048;22;1434993;-83
2021/10/11 09:26:53;;;;;;;7.88;6.20;;;26.40;26.30;;;;;;6099046;23;20014;-83
2021/10/11 09:29:36;;;;;;;12.68;6.90;;;26.10;26.40;;;;;;6100610;23;20002;-83
2021/10/11 09:32:05;;;;;;;8.85;5.68;;;26.40;26.90;;;;;;6100742;23;20002;-84
2021/10/11 09:34:32;;;;;;;10.57;6.03;;;26.50;26.20;;;;;;6100770;23;20405;-82
2021/10/11 09:37:00;;;;;;;;;;;26.70;26.00;;;;;;6101572;23;20002;-85
2021/10/11 09:39:28;;;;;;;6.07;5.47;;;27.10;26.80;;;;;;6075242;23;19936;-84
2021/10/11 09:41:54;;;;;;;9.02;5.93;;;27.20;25.50;;;;;;6100428;23;20003;-84
2021/10/11 09:44:21;;;;;;;16.42;6.78;;;27.80;25.60;;;;;;6101027;23;20010;-84
2021/10/11 09:46:48;;;;;;;;;;;28.00;25.30;;;;;;6101904;23;20298;-84
2021/10/11 09:49:14;;;;;;;11.57;5.90;;;28.60;26.60;;;;;;6079568;23;20412;-83
2021/10/11 09:51:41;;;;;;;8.80;6.72;;;29.10;25.10;;;;;;6100594;23;20007;-84
2021/10/11 09:54:07;;;;;;;10.98;7.93;;;28.20;25.00;;;;;;6100178;23;20005;-84
2021/10/11 09:56:33;;;;;;;8.18;6.90;;;28.20;25.30;;;;;;6100923;23;20450;-83
2021/10/11 09:59:01;;;;;;;7.57;6.17;;;28.70;25.00;;;;;;6076121;23;20029;-84
2021/10/11 10:01:29;;;;;;;7.55;5.32;;;29.20;24.80;;;;;;6074254;23;20013;-83
2021/10/11 10:03:56;;;;;;;10.27;6.40;;;28.60;24.80;;;;;;6100122;23;20014;-85
2021/10/11 10:06:28;;;;;;;10.68;6.43;;;28.50;25.00;;;;;;6099921;23;20002;-85
2021/10/11 10:08:56;;;;;;;9.13;6.38;;;27.60;24.90;;;;;;6075125;23;20467;-85
2021/10/11 10:11:29;;;;;;;13.23;6.20;;;25.80;25.40;;;;;;6099775;23;20052;-83
2021/10/11 10:13:55;;;;;;;8.68;6.90;;;24.30;26.60;;;;;;6074660;23;20006;-83
2021/10/11 10:16:21;;;;;;;9.70;7.03;;;22.60;27.70;;;;;;6100850;23;20025;-82
2021/10/11 10:18:46;;;;;;;11.50;7.53;;;21.30;28.80;;;;;;6100281;23;20332;-83
2021/10/11 10:21:13;;;;;;;10.00;6.93;;;;;;;;;;6100201;23;20053;-84
2021/10/11 10:23:43;;;;;;;16.35;8.82;;;20.00;30.20;;;;;;6099717;23;20355;-83
2021/10/11 10:26:13;;;;;;;11.57;7.03;;;18.40;32.70;;;;;;6070125;23;20009;-83
2021/10/11 10:28:42;;;;;;;8.25;6.55;;;17.70;33.40;;;;;;6094673;23;20085;-82
2021/10/11 10:31:09;;;;;;;11.43;8.63;;;17.30;34.20;;;;;;6068244;23;20038;-82
2021/10/11 10:33:39;;;;;;;12.07;8.10;;;16.90;35.00;;;;;;6093178;23;20321;-84
2021/10/11 10:36:19;;;;;;;12.32;7.60;;;16.60;35.70;;;;;;6093637;23;20006;-83
2021/10/11 10:39:07;;;;;;;13.23;8.50;;;16.10;36.70;;;;;;6093776;23;20345;-83
2021/10/11 10:41:33;;;;;;;15.00;8.30;;;15.90;37.40;;;;;;6093523;23;20080;-82
2021/10/11 10:44:18;;;;;;;12.38;8.18;;;15.80;38.00;;;;;;6093372;23;20007;-83
2021/10/11 10:46:56;;;;;;;13.48;8.13;;;15.50;38.20;;;;;;6094062;23;20443;-85
2021/10/11 10:49:34;;;;;;;12.23;7.90;;;15.40;38.80;;;;;;6094191;23;20007;-84
2021/10/11 10:52:08;;;;;;;10.85;8.80;;;15.30;39.00;;;;;;6093602;23;20376;-83
2021/10/11 10:54:41;;;;;;;10.15;7.53;;;15.30;38.70;;;;;;6094916;23;20006;-82
2021/10/11 10:57:08;;;;;;;12.30;8.00;;;15.30;38.60;;;;;;6093395;23;20421;-84
2021/10/11 10:59:34;;;;;;;20.13;12.13;;;15.00;39.10;;;;;;6093551;23;20045;-83
2021/10/11 11:02:11;;;;;;;10.70;8.57;;;14.90;40.00;;;;;;6093494;23;20083;-83
2021/10/11 11:04:38;;;;;;;10.80;7.65;;;14.90;40.00;;;;;;6093353;23;20078;-84
2021/10/11 11:07:11;;;;;;;11.68;7.78;;;14.90;39.80;;;;;;6093251;23;20428;-82
2021/10/11 11:09:45;;;;;;;11.15;7.45;;;14.80;39.70;;;;;;6093098;23;20428;-81
2021/10/11 11:12:12;;;;;;;11.18;7.10;;;14.70;40.10;;;;;;6092904;23;20014;-82
2021/10/11 11:14:43;;;;;;;9.98;7.93;;;14.70;40.30;;;;;;6093282;23;20002;-83
2021/10/11 11:17:13;;;;;;;12.95;7.88;;;14.60;40.40;;;;;;6093621;23;20386;-82
2021/10/11 11:19:42;;;;;;;12.45;8.23;;;14.60;39.80;;;;;;6093743;23;20055;-82
2021/10/11 11:22:10;;;;;;;10.60;7.28;;;14.60;39.50;;;;;;6093571;23;20014;-83
2021/10/11 11:24:35;;;;;;;13.60;7.38;;;14.60;40.20;;;;;;6068259;23;20023;-83
2021/10/11 11:27:02;;;;;;;11.82;7.78;;;14.50;40.50;;;;;;6094967;23;20050;-83
2021/10/11 11:29:30;;;;;;;9.35;6.75;;;14.40;40.90;;;;;;6100342;23;20002;-83
2021/10/11 11:31:56;;;;;;;9.40;6.30;;;14.40;40.50;;;;;;6094202;23;20006;-83
2021/10/11 11:34:22;;;;;;;12.73;7.25;;;14.40;40.00;;;;;;6096874;23;20006;-82
2021/10/11 11:36:53;;;;;;;13.48;7.32;;;14.50;40.30;;;;;;6094259;23;20368;-82
2021/10/11 11:39:19;;;;;;;9.65;6.20;;;14.50;40.40;;;;;;6094001;23;20100;-82
2021/10/11 11:41:53;;;;;;;8.85;6.40;;;14.40;40.50;;;;;;6094209;23;20305;-83
2021/10/11 11:44:27;;;;;;;8.38;5.75;;;14.10;41.00;;;;;;6093909;23;20384;-81
2021/10/11 11:47:06;;;;;;;13.70;7.30;;;14.00;41.30;;;;;;6068727;23;20003;-83
2021/10/11 11:49:36;;;;;;;10.05;8.23;;;14.00;41.90;;;;;;6093553;23;20065;-82
2021/10/11 11:52:06;;;;;;;10.98;8.25;;;14.10;41.60;;;;;;6094893;23;20374;-82
2021/10/11 11:54:32;;;;;;;15.52;6.32;;;14.30;41.30;;;;;;6094747;23;20002;-82
2021/10/11 11:56:57;;;;;;;12.23;6.90;;;14.30;40.90;;;;;;6094580;23;20048;-82
2021/10/11 11:59:23;;;;;;;9.43;6.75;;;14.30;41.10;;;;;;6093390;23;20017;-83
2021/10/11 12:01:50;;;;;;;12.93;8.07;;;14.30;41.20;;;;;;6067195;23;20451;-83
2021/10/11 12:04:16;;;;;;;8.52;6.80;;;14.30;40.90;;;;;;6093029;23;20337;-82
2021/10/11 12:06:43;;;;;;;9.52;6.53;;;14.30;40.50;;;;;;6067514;23;20006;-81
2021/10/11 12:09:10;;;;;;;14.57;7.68;;;14.30;40.90;;;;;;6093760;23;20512;-83
2021/10/11 12:11:37;;;;;;;13.88;7.53;;;14.30;40.10;;;;;;6067028;23;20002;-82
2021/10/11 12:14:04;;;;;;;10.35;7.15;;;14.30;40.00;;;;;;6092819;23;20129;-82
2021/10/11 12:16:30;;;;;;;8.90;6.47;;;14.30;39.90;;;;;;6092730;23;19994;-82
2021/10/11 12:18:59;;;;;;;12.38;6.78;;;14.30;40.00;;;;;;6093652;23;19998;-83
2021/10/11 12:21:31;;;;;;;9.57;5.95;;;14.30;40.00;;;;;;6093599;23;19995;-83
2021/10/11 12:24:00;;;;;;;11.02;6.80;;;14.30;40.00;;;;;;6067029;23;20022;-82
2021/10/11 12:26:29;;;;;;;9.02;6.38;;;14.20;40.20;;;;;;6092875;23;20417;-82
2021/10/11 12:29:01;;;;;;;10.32;6.88;;;14.20;40.50;;;;;;6092916;23;20082;-82
2021/10/11 12:31:29;;;;;;;13.38;7.55;;;14.20;40.50;;;;;;6093747;23;20002;-84
2021/10/11 12:34:10;;;;;;;10.85;6.18;;;14.20;40.90;;;;;;6093690;23;20037;-83
2021/10/11 12:36:51;;;;;;;9.95;6.90;;;14.20;40.70;;;;;;6068875;23;20013;-82
2021/10/11 12:39:27;;;;;;;11.07;7.22;;;14.30;40.80;;;;;;6094350;23;20003;-83
2021/10/11 12:41:53;;;;;;;21.38;9.52;;;14.30;41.00;;;;;;6093913;23;20013;-83
2021/10/11 12:44:25;;;;;;;12.68;8.52;;;14.20;40.80;;;;;;6067364;23;20060;-83
2021/10/11 12:46:51;;;;;;;12.65;6.97;;;14.20;40.80;;;;;;6094426;23;20003;-83
2021/10/11 12:49:29;;;;;;;11.68;5.78;;;14.20;40.80;;;;;;6094946;23;20014;-84
2021/10/11 12:51:55;;;;;;;12.02;6.63;;;14.20;40.90;;;;;;6094057;23;20081;-83
2021/10/11 12:54:28;;;;;;;14.30;6.22;;;14.20;41.30;;;;;;6092820;23;20468;-84
2021/10/11 12:56:54;;;;;;;11.68;6.47;;;14.10;41.30;;;;;;6094436;23;20089;-83
2021/10/11 12:59:21;;;;;;;10.55;7.53;;;14.20;41.50;;;;;;6094973;23;20007;-84
2021/10/11 13:01:49;;;;;;;12.38;6.97;;;14.20;41.30;;;;;;6067685;23;20011;-83
2021/10/11 13:04:15;;;;;;;9.57;5.57;;;14.20;41.00;;;;;;6094182;23;20002;-83
2021/10/11 13:06:45;;;;;;;10.88;6.28;;;14.20;40.80;;;;;;6094364;23;19994;-84
2021/10/11 13:09:11;;;;;;;10.10;5.72;;;14.10;40.80;;;;;;6094506;23;20002;-82
2021/10/11 13:11:37;;;;;;;14.32;6.28;;;14.10;41.30;;;;;;6094318;23;20303;-84
2021/10/11 13:14:03;;;;;;;12.40;5.72;;;14.00;41.70;;;;;;6094094;23;20005;-82